sensor_id;sensor_type;location;lat;lon;timestamp;temperature;humidity
20862;DHT22;10591;52.532;13.348;2022-12-18T00:02:02;-5.08;88.34
20862;DHT22;10591;52.532;13.348;2022-12-18T00:04:36;-4.98;88.33
20862;DHT22;10591;52.532;13.348;2022-12-18T00:07:08;-4.74;87.92
20862;DHT22;10591;52.532;13.348;2022-12-18T00:09:39;-4.71;87.64
20862;DHT22;10591;52.532;13.348;2022-12-18T00:12:10;-4.80;87.45
20862;DHT22;10591;52.532;13.348;2022-12-18T00:14:45;-4.69;87.42
20862;DHT22;10591;52.532;13.348;2022-12-18T00:17:16;-4.90;87.04
20862;DHT22;10591;52.532;13.348;2022-12-18T00:19:47;-5.06;87.01
20862;DHT22;10591;52.532;13.348;2022-12-18T00:22:17;-5.13;87.35
20862;DHT22;10591;52.532;13.348;2022-12-18T00:24:49;-5.24;87.61
20862;DHT22;10591;52.532;13.348;2022-12-18T00:27:20;-5.18;87.70
20862;DHT22;10591;52.532;13.348;2022-12-18T00:29:52;-5.28;88.09
20862;DHT22;10591;52.532;13.348;2022-12-18T00:32:23;-5.14;87.90
20862;DHT22;10591;52.532;13.348;2022-12-18T00:34:53;-5.15;87.87
20862;DHT22;10591;52.532;13.348;2022-12-18T00:37:25;-5.01;87.88
20862;DHT22;10591;52.532;13.348;2022-12-18T00:39:58;-4.90;87.59
20862;DHT22;10591;52.532;13.348;2022-12-18T00:42:28;-4.88;87.31
20862;DHT22;10591;52.532;13.348;2022-12-18T00:45:17;-4.92;86.95
20862;DHT22;10591;52.532;13.348;2022-12-18T00:47:48;-4.88;86.89
20862;DHT22;10591;52.532;13.348;2022-12-18T00:50:19;-4.95;86.88
20862;DHT22;10591;52.532;13.348;2022-12-18T00:52:50;-4.84;86.86
20862;DHT22;10591;52.532;13.348;2022-12-18T00:55:21;-4.82;86.89
20862;DHT22;10591;52.532;13.348;2022-12-18T00:57:52;-4.80;86.79
20862;DHT22;10591;52.532;13.348;2022-12-18T01:00:23;-4.57;86.89
20862;DHT22;10591;52.532;13.348;2022-12-18T01:02:55;-4.73;86.41
20862;DHT22;10591;52.532;13.348;2022-12-18T01:05:26;-4.84;86.80
20862;DHT22;10591;52.532;13.348;2022-12-18T01:07:58;-4.82;86.50
20862;DHT22;10591;52.532;13.348;2022-12-18T01:10:29;-4.97;86.66
20862;DHT22;10591;52.532;13.348;2022-12-18T01:13:01;-4.85;86.45
20862;DHT22;10591;52.532;13.348;2022-12-18T01:15:32;-4.74;86.01
20862;DHT22;10591;52.532;13.348;2022-12-18T01:18:13;-4.78;85.52
20862;DHT22;10591;52.532;13.348;2022-12-18T01:20:45;-4.94;85.69
20862;DHT22;10591;52.532;13.348;2022-12-18T01:23:17;-5.36;86.21
20862;DHT22;10591;52.532;13.348;2022-12-18T01:25:48;-5.26;86.80
20862;DHT22;10591;52.532;13.348;2022-12-18T01:28:18;-5.26;86.86
20862;DHT22;10591;52.532;13.348;2022-12-18T01:30:49;-5.46;87.00
20862;DHT22;10591;52.532;13.348;2022-12-18T01:33:21;-5.44;87.14
20862;DHT22;10591;52.532;13.348;2022-12-18T01:35:52;-5.29;87.14
20862;DHT22;10591;52.532;13.348;2022-12-18T01:38:25;-5.24;87.15
20862;DHT22;10591;52.532;13.348;2022-12-18T01:41:01;-5.30;87.14
20862;DHT22;10591;52.532;13.348;2022-12-18T01:43:46;-5.28;87.21
20862;DHT22;10591;52.532;13.348;2022-12-18T01:46:19;-5.10;86.90
20862;DHT22;10591;52.532;13.348;2022-12-18T01:49:01;-5.26;87.09
20862;DHT22;10591;52.532;13.348;2022-12-18T01:51:32;-5.36;87.12
20862;DHT22;10591;52.532;13.348;2022-12-18T01:54:04;-5.26;87.07
20862;DHT22;10591;52.532;13.348;2022-12-18T01:56:35;-5.24;87.09
20862;DHT22;10591;52.532;13.348;2022-12-18T01:59:08;-5.24;87.36
20862;DHT22;10591;52.532;13.348;2022-12-18T02:01:40;-5.20;87.12
20862;DHT22;10591;52.532;13.348;2022-12-18T02:04:23;-5.52;87.08
20862;DHT22;10591;52.532;13.348;2022-12-18T02:07:01;-5.48;87.50
20862;DHT22;10591;52.532;13.348;2022-12-18T02:09:38;-5.72;87.69
20862;DHT22;10591;52.532;13.348;2022-12-18T02:12:27;-5.68;87.86
20862;DHT22;10591;52.532;13.348;2022-12-18T02:14:59;-5.46;87.80
20862;DHT22;10591;52.532;13.348;2022-12-18T02:17:43;-5.71;87.77
20862;DHT22;10591;52.532;13.348;2022-12-18T02:20:26;-5.58;87.97
20862;DHT22;10591;52.532;13.348;2022-12-18T02:23:04;-5.54;87.88
20862;DHT22;10591;52.532;13.348;2022-12-18T02:28:16;-5.50;87.74
20862;DHT22;10591;52.532;13.348;2022-12-18T02:30:51;-5.32;87.71
20862;DHT22;10591;52.532;13.348;2022-12-18T02:33:27;-5.20;87.47
20862;DHT22;10591;52.532;13.348;2022-12-18T02:36:01;-5.30;87.45
20862;DHT22;10591;52.532;13.348;2022-12-18T02:38:34;-5.28;87.06
20862;DHT22;10591;52.532;13.348;2022-12-18T02:41:06;-5.28;87.15
20862;DHT22;10591;52.532;13.348;2022-12-18T02:43:42;-5.28;87.11
20862;DHT22;10591;52.532;13.348;2022-12-18T02:46:33;-5.56;87.09
20862;DHT22;10591;52.532;13.348;2022-12-18T02:52:10;-5.41;87.40
20862;DHT22;10591;52.532;13.348;2022-12-18T02:54:21;-5.50;87.38
20862;DHT22;10591;52.532;13.348;2022-12-18T02:56:56;-5.76;87.43
20862;DHT22;10591;52.532;13.348;2022-12-18T02:59:38;-5.92;88.08
20862;DHT22;10591;52.532;13.348;2022-12-18T03:02:17;-5.92;88.20
20862;DHT22;10591;52.532;13.348;2022-12-18T03:04:54;-5.94;88.38
20862;DHT22;10591;52.532;13.348;2022-12-18T03:07:33;-5.98;88.47
20862;DHT22;10591;52.532;13.348;2022-12-18T03:10:01;-5.98;88.36
20862;DHT22;10591;52.532;13.348;2022-12-18T03:12:37;-5.90;88.22
20862;DHT22;10591;52.532;13.348;2022-12-18T03:15:23;-5.80;88.35
20862;DHT22;10591;52.532;13.348;2022-12-18T03:18:02;-5.69;88.23
20862;DHT22;10591;52.532;13.348;2022-12-18T03:20:35;-5.50;88.05
20862;DHT22;10591;52.532;13.348;2022-12-18T03:23:13;-5.51;87.70
20862;DHT22;10591;52.532;13.348;2022-12-18T03:25:45;-5.54;87.28
20862;DHT22;10591;52.532;13.348;2022-12-18T03:28:19;-5.57;87.23
20862;DHT22;10591;52.532;13.348;2022-12-18T03:30:58;-5.80;87.30
20862;DHT22;10591;52.532;13.348;2022-12-18T03:33:29;-5.86;87.61
20862;DHT22;10591;52.532;13.348;2022-12-18T03:36:01;-5.74;87.60
20862;DHT22;10591;52.532;13.348;2022-12-18T03:38:32;-5.64;87.61
20862;DHT22;10591;52.532;13.348;2022-12-18T03:41:10;-5.60;87.39
20862;DHT22;10591;52.532;13.348;2022-12-18T03:46:38;-6.04;87.81
20862;DHT22;10591;52.532;13.348;2022-12-18T03:54:25;-6.22;88.27
20862;DHT22;10591;52.532;13.348;2022-12-18T03:57:04;-6.20;88.21
20862;DHT22;10591;52.532;13.348;2022-12-18T03:59:37;-6.21;88.39
20862;DHT22;10591;52.532;13.348;2022-12-18T04:02:09;-6.19;88.41
20862;DHT22;10591;52.532;13.348;2022-12-18T04:04:43;-6.48;88.69
20862;DHT22;10591;52.532;13.348;2022-12-18T04:07:16;-6.42;88.97
20862;DHT22;10591;52.532;13.348;2022-12-18T04:09:49;-6.30;88.95
20862;DHT22;10591;52.532;13.348;2022-12-18T04:12:23;-6.18;88.87
20862;DHT22;10591;52.532;13.348;2022-12-18T04:14:53;-6.12;88.60
20862;DHT22;10591;52.532;13.348;2022-12-18T04:17:23;-6.07;88.48
20862;DHT22;10591;52.532;13.348;2022-12-18T04:19:55;-6.18;88.25
20862;DHT22;10591;52.532;13.348;2022-12-18T04:22:26;-5.99;88.23
20862;DHT22;10591;52.532;13.348;2022-12-18T04:24:57;-5.92;88.12
20862;DHT22;10591;52.532;13.348;2022-12-18T04:27:28;-5.94;87.87
20862;DHT22;10591;52.532;13.348;2022-12-18T04:29:58;-5.96;87.62
20862;DHT22;10591;52.532;13.348;2022-12-18T04:32:30;-6.06;87.55
20862;DHT22;10591;52.532;13.348;2022-12-18T04:35:01;-5.88;87.55
20862;DHT22;10591;52.532;13.348;2022-12-18T04:37:34;-5.86;87.49
20862;DHT22;10591;52.532;13.348;2022-12-18T04:40:07;-5.90;87.41
20862;DHT22;10591;52.532;13.348;2022-12-18T04:42:39;-6.22;87.69
20862;DHT22;10591;52.532;13.348;2022-12-18T04:45:10;-6.48;88.22
20862;DHT22;10591;52.532;13.348;2022-12-18T04:47:42;-6.46;88.50
20862;DHT22;10591;52.532;13.348;2022-12-18T04:50:13;-6.44;88.45
20862;DHT22;10591;52.532;13.348;2022-12-18T04:52:47;-6.52;88.55
20862;DHT22;10591;52.532;13.348;2022-12-18T04:55:17;-6.48;88.56
20862;DHT22;10591;52.532;13.348;2022-12-18T04:57:48;-6.46;88.65
20862;DHT22;10591;52.532;13.348;2022-12-18T05:00:19;-6.16;88.40
20862;DHT22;10591;52.532;13.348;2022-12-18T05:02:50;-6.12;88.17
20862;DHT22;10591;52.532;13.348;2022-12-18T05:05:21;-6.18;88.05
20862;DHT22;10591;52.532;13.348;2022-12-18T05:07:52;-6.28;87.90
20862;DHT22;10591;52.532;13.348;2022-12-18T05:10:23;-6.25;88.01
20862;DHT22;10591;52.532;13.348;2022-12-18T05:12:53;-6.46;88.06
20862;DHT22;10591;52.532;13.348;2022-12-18T05:15:32;-6.36;88.11
20862;DHT22;10591;52.532;13.348;2022-12-18T05:18:03;-6.34;88.09
20862;DHT22;10591;52.532;13.348;2022-12-18T05:20:34;-6.10;87.93
20862;DHT22;10591;52.532;13.348;2022-12-18T05:23:04;-5.93;87.77
20862;DHT22;10591;52.532;13.348;2022-12-18T05:25:38;-5.98;87.56
20862;DHT22;10591;52.532;13.348;2022-12-18T05:28:10;-6.14;87.52
20862;DHT22;10591;52.532;13.348;2022-12-18T05:30:47;-5.92;87.55
20862;DHT22;10591;52.532;13.348;2022-12-18T05:33:20;-6.44;87.70
20862;DHT22;10591;52.532;13.348;2022-12-18T05:35:56;-6.25;88.04
20862;DHT22;10591;52.532;13.348;2022-12-18T05:38:30;-6.30;87.86
20862;DHT22;10591;52.532;13.348;2022-12-18T05:41:03;-6.16;88.14
20862;DHT22;10591;52.532;13.348;2022-12-18T05:43:36;-6.02;87.89
20862;DHT22;10591;52.532;13.348;2022-12-18T05:46:11;-6.10;87.67
20862;DHT22;10591;52.532;13.348;2022-12-18T05:48:43;-6.34;87.56
20862;DHT22;10591;52.532;13.348;2022-12-18T05:51:16;-6.10;87.84
20862;DHT22;10591;52.532;13.348;2022-12-18T05:53:47;-6.04;87.73
20862;DHT22;10591;52.532;13.348;2022-12-18T05:56:20;-6.38;87.72
20862;DHT22;10591;52.532;13.348;2022-12-18T05:58:52;-6.48;88.10
20862;DHT22;10591;52.532;13.348;2022-12-18T06:01:25;-6.30;88.29
20862;DHT22;10591;52.532;13.348;2022-12-18T06:03:56;-6.12;88.15
20862;DHT22;10591;52.532;13.348;2022-12-18T06:06:28;-6.20;88.05
20862;DHT22;10591;52.532;13.348;2022-12-18T06:08:58;-6.30;87.99
20862;DHT22;10591;52.532;13.348;2022-12-18T06:11:31;-6.28;87.95
20862;DHT22;10591;52.532;13.348;2022-12-18T06:14:02;-6.42;88.27
20862;DHT22;10591;52.532;13.348;2022-12-18T06:16:33;-6.48;88.37
20862;DHT22;10591;52.532;13.348;2022-12-18T06:19:06;-6.32;88.58
20862;DHT22;10591;52.532;13.348;2022-12-18T06:21:36;-6.27;88.40
20862;DHT22;10591;52.532;13.348;2022-12-18T06:24:08;-6.24;88.28
20862;DHT22;10591;52.532;13.348;2022-12-18T06:26:42;-6.26;88.15
20862;DHT22;10591;52.532;13.348;2022-12-18T06:29:13;-6.28;88.15
20862;DHT22;10591;52.532;13.348;2022-12-18T06:31:43;-6.20;88.06
20862;DHT22;10591;52.532;13.348;2022-12-18T06:34:16;-6.38;88.18
20862;DHT22;10591;52.532;13.348;2022-12-18T06:36:46;-6.22;88.33
20862;DHT22;10591;52.532;13.348;2022-12-18T06:39:17;-6.26;88.24
20862;DHT22;10591;52.532;13.348;2022-12-18T06:41:49;-6.27;88.28
20862;DHT22;10591;52.532;13.348;2022-12-18T06:44:20;-6.26;88.27
20862;DHT22;10591;52.532;13.348;2022-12-18T06:46:51;-6.34;88.38
20862;DHT22;10591;52.532;13.348;2022-12-18T06:49:22;-6.28;88.35
20862;DHT22;10591;52.532;13.348;2022-12-18T06:51:56;-6.28;88.23
20862;DHT22;10591;52.532;13.348;2022-12-18T06:54:27;-6.13;88.19
20862;DHT22;10591;52.532;13.348;2022-12-18T06:56:59;-5.96;88.09
20862;DHT22;10591;52.532;13.348;2022-12-18T06:59:29;-5.97;87.94
20862;DHT22;10591;52.532;13.348;2022-12-18T07:02:01;-5.76;87.66
20862;DHT22;10591;52.532;13.348;2022-12-18T07:04:32;-6.02;87.30
20862;DHT22;10591;52.532;13.348;2022-12-18T07:07:05;-5.88;87.27
20862;DHT22;10591;52.532;13.348;2022-12-18T07:09:36;-6.12;87.25
20862;DHT22;10591;52.532;13.348;2022-12-18T07:12:07;-6.14;87.66
20862;DHT22;10591;52.532;13.348;2022-12-18T07:14:38;-6.06;87.43
20862;DHT22;10591;52.532;13.348;2022-12-18T07:17:11;-5.86;87.61
20862;DHT22;10591;52.532;13.348;2022-12-18T07:19:42;-5.84;87.41
20862;DHT22;10591;52.532;13.348;2022-12-18T07:22:13;-5.90;87.33
20862;DHT22;10591;52.532;13.348;2022-12-18T07:24:44;-5.66;87.29
20862;DHT22;10591;52.532;13.348;2022-12-18T07:27:16;-5.88;87.27
20862;DHT22;10591;52.532;13.348;2022-12-18T07:29:47;-5.94;87.14
20862;DHT22;10591;52.532;13.348;2022-12-18T07:32:19;-6.06;87.60
20862;DHT22;10591;52.532;13.348;2022-12-18T07:34:49;-5.97;87.82
20862;DHT22;10591;52.532;13.348;2022-12-18T07:37:22;-5.90;87.75
20862;DHT22;10591;52.532;13.348;2022-12-18T07:39:52;-5.90;87.64
20862;DHT22;10591;52.532;13.348;2022-12-18T07:42:23;-5.78;87.54
20862;DHT22;10591;52.532;13.348;2022-12-18T07:45:04;-5.73;87.56
20862;DHT22;10591;52.532;13.348;2022-12-18T07:47:36;-5.80;87.25
20862;DHT22;10591;52.532;13.348;2022-12-18T07:50:08;-5.86;87.57
20862;DHT22;10591;52.532;13.348;2022-12-18T07:52:40;-5.76;87.74
20862;DHT22;10591;52.532;13.348;2022-12-18T07:55:11;-5.70;87.65
20862;DHT22;10591;52.532;13.348;2022-12-18T07:57:43;-5.72;87.65
20862;DHT22;10591;52.532;13.348;2022-12-18T08:00:17;-5.63;87.67
20862;DHT22;10591;52.532;13.348;2022-12-18T08:02:49;-5.48;87.63
20862;DHT22;10591;52.532;13.348;2022-12-18T08:05:21;-5.50;87.50
20862;DHT22;10591;52.532;13.348;2022-12-18T08:07:53;-5.38;87.37
20862;DHT22;10591;52.532;13.348;2022-12-18T08:10:27;-5.48;87.07
20862;DHT22;10591;52.532;13.348;2022-12-18T08:12:58;-5.36;86.83
20862;DHT22;10591;52.532;13.348;2022-12-18T08:15:30;-5.40;86.97
20862;DHT22;10591;52.532;13.348;2022-12-18T08:18:02;-5.27;86.86
20862;DHT22;10591;52.532;13.348;2022-12-18T08:20:33;-5.34;86.74
20862;DHT22;10591;52.532;13.348;2022-12-18T08:23:05;-5.28;86.73
20862;DHT22;10591;52.532;13.348;2022-12-18T08:25:37;-5.54;86.58
20862;DHT22;10591;52.532;13.348;2022-12-18T08:28:08;-5.56;86.80
20862;DHT22;10591;52.532;13.348;2022-12-18T08:30:41;-5.54;86.88
20862;DHT22;10591;52.532;13.348;2022-12-18T08:33:12;-5.88;87.60
20862;DHT22;10591;52.532;13.348;2022-12-18T08:35:46;-5.96;87.86
20862;DHT22;10591;52.532;13.348;2022-12-18T08:38:16;-5.82;88.31
20862;DHT22;10591;52.532;13.348;2022-12-18T08:40:48;-5.76;88.12
20862;DHT22;10591;52.532;13.348;2022-12-18T08:43:18;-5.68;88.19
20862;DHT22;10591;52.532;13.348;2022-12-18T08:46:08;-5.61;88.04
20862;DHT22;10591;52.532;13.348;2022-12-18T08:48:40;-5.70;87.86
20862;DHT22;10591;52.532;13.348;2022-12-18T08:51:11;-5.84;88.13
20862;DHT22;10591;52.532;13.348;2022-12-18T08:53:44;-5.62;88.00
20862;DHT22;10591;52.532;13.348;2022-12-18T08:56:20;-5.52;87.82
20862;DHT22;10591;52.532;13.348;2022-12-18T08:58:53;-5.62;87.63
20862;DHT22;10591;52.532;13.348;2022-12-18T09:01:27;-5.40;87.72
20862;DHT22;10591;52.532;13.348;2022-12-18T09:03:58;-5.44;87.35
20862;DHT22;10591;52.532;13.348;2022-12-18T09:06:30;-5.39;87.20
20862;DHT22;10591;52.532;13.348;2022-12-18T09:09:04;-5.36;86.70
20862;DHT22;10591;52.532;13.348;2022-12-18T09:11:36;-5.28;86.52
20862;DHT22;10591;52.532;13.348;2022-12-18T09:14:07;-5.44;86.46
20862;DHT22;10591;52.532;13.348;2022-12-18T09:16:39;-5.10;86.36
20862;DHT22;10591;52.532;13.348;2022-12-18T09:19:11;-5.43;86.48
20862;DHT22;10591;52.532;13.348;2022-12-18T09:21:41;-5.72;87.16
20862;DHT22;10591;52.532;13.348;2022-12-18T09:24:15;-5.62;87.38
20862;DHT22;10591;52.532;13.348;2022-12-18T09:26:46;-5.54;87.38
20862;DHT22;10591;52.532;13.348;2022-12-18T09:29:18;-5.55;87.36
20862;DHT22;10591;52.532;13.348;2022-12-18T09:31:50;-5.66;87.38
20862;DHT22;10591;52.532;13.348;2022-12-18T09:34:21;-5.46;87.28
20862;DHT22;10591;52.532;13.348;2022-12-18T09:36:51;-5.50;86.84
20862;DHT22;10591;52.532;13.348;2022-12-18T09:39:23;-5.53;86.88
20862;DHT22;10591;52.532;13.348;2022-12-18T09:41:55;-5.50;87.25
20862;DHT22;10591;52.532;13.348;2022-12-18T09:44:34;-5.52;87.16
20862;DHT22;10591;52.532;13.348;2022-12-18T09:47:31;-5.44;87.24
20862;DHT22;10591;52.532;13.348;2022-12-18T09:49:50;-5.34;87.29
20862;DHT22;10591;52.532;13.348;2022-12-18T09:52:45;-5.10;87.04
20862;DHT22;10591;52.532;13.348;2022-12-18T09:55:32;-5.09;86.73
20862;DHT22;10591;52.532;13.348;2022-12-18T09:58:17;-4.81;86.47
20862;DHT22;10591;52.532;13.348;2022-12-18T10:00:48;-4.76;86.43
20862;DHT22;10591;52.532;13.348;2022-12-18T10:03:22;-4.64;86.45
20862;DHT22;10591;52.532;13.348;2022-12-18T10:11:44;-4.59;86.30
20862;DHT22;10591;52.532;13.348;2022-12-18T10:14:27;-4.64;86.56
20862;DHT22;10591;52.532;13.348;2022-12-18T10:16:59;-5.12;87.43
20862;DHT22;10591;52.532;13.348;2022-12-18T10:19:46;-4.88;88.07
20862;DHT22;10591;52.532;13.348;2022-12-18T10:27:31;-4.56;87.54
20862;DHT22;10591;52.532;13.348;2022-12-18T10:30:12;-4.60;87.53
20862;DHT22;10591;52.532;13.348;2022-12-18T10:32:42;-4.47;87.50
20862;DHT22;10591;52.532;13.348;2022-12-18T10:35:27;-4.51;87.53
20862;DHT22;10591;52.532;13.348;2022-12-18T10:38:05;-4.58;87.78
20862;DHT22;10591;52.532;13.348;2022-12-18T10:40:57;-4.42;87.65
20862;DHT22;10591;52.532;13.348;2022-12-18T10:43:34;-4.42;88.21
20862;DHT22;10591;52.532;13.348;2022-12-18T10:51:27;-4.04;87.43
20862;DHT22;10591;52.532;13.348;2022-12-18T10:54:23;-3.86;86.97
20862;DHT22;10591;52.532;13.348;2022-12-18T10:56:49;-3.84;86.47
20862;DHT22;10591;52.532;13.348;2022-12-18T10:59:22;-3.96;86.36
20862;DHT22;10591;52.532;13.348;2022-12-18T11:01:58;-3.81;86.35
20862;DHT22;10591;52.532;13.348;2022-12-18T11:04:31;-3.92;86.41
20862;DHT22;10591;52.532;13.348;2022-12-18T11:07:07;-3.84;86.54
20862;DHT22;10591;52.532;13.348;2022-12-18T11:09:40;-4.18;86.89
20862;DHT22;10591;52.532;13.348;2022-12-18T11:12:19;-4.22;87.21
20862;DHT22;10591;52.532;13.348;2022-12-18T11:14:52;-4.22;87.71
20862;DHT22;10591;52.532;13.348;2022-12-18T11:17:33;-4.12;87.57
20862;DHT22;10591;52.532;13.348;2022-12-18T11:20:20;-3.94;87.46
20862;DHT22;10591;52.532;13.348;2022-12-18T11:23:02;-3.92;87.01
20862;DHT22;10591;52.532;13.348;2022-12-18T11:25:31;-3.88;86.80
20862;DHT22;10591;52.532;13.348;2022-12-18T11:31:27;-3.98;86.86
20862;DHT22;10591;52.532;13.348;2022-12-18T11:34:24;-4.44;87.81
20862;DHT22;10591;52.532;13.348;2022-12-18T11:36:59;-4.24;88.24
20862;DHT22;10591;52.532;13.348;2022-12-18T11:39:40;-4.21;88.20
20862;DHT22;10591;52.532;13.348;2022-12-18T11:42:30;-4.28;88.32
20862;DHT22;10591;52.532;13.348;2022-12-18T11:48:14;-4.14;88.02
20862;DHT22;10591;52.532;13.348;2022-12-18T11:50:48;-4.10;87.90
20862;DHT22;10591;52.532;13.348;2022-12-18T11:53:22;-3.99;87.77
20862;DHT22;10591;52.532;13.348;2022-12-18T11:56:26;-4.00;87.65
20862;DHT22;10591;52.532;13.348;2022-12-18T11:59:17;-4.04;87.71
20862;DHT22;10591;52.532;13.348;2022-12-18T12:07:12;-4.08;87.75
20862;DHT22;10591;52.532;13.348;2022-12-18T12:10:03;-3.94;87.49
20862;DHT22;10591;52.532;13.348;2022-12-18T12:23:31;-3.90;87.34
20862;DHT22;10591;52.532;13.348;2022-12-18T12:26:02;-3.82;87.33
20862;DHT22;10591;52.532;13.348;2022-12-18T12:28:50;-4.04;87.14
20862;DHT22;10591;52.532;13.348;2022-12-18T12:39:32;-4.36;88.10
20862;DHT22;10591;52.532;13.348;2022-12-18T12:42:14;-4.20;88.25
20862;DHT22;10591;52.532;13.348;2022-12-18T12:45:01;-4.14;88.04
20862;DHT22;10591;52.532;13.348;2022-12-18T12:47:38;-3.92;87.84
20862;DHT22;10591;52.532;13.348;2022-12-18T12:50:16;-3.93;87.54
20862;DHT22;10591;52.532;13.348;2022-12-18T12:52:52;-4.19;87.67
20862;DHT22;10591;52.532;13.348;2022-12-18T12:55:26;-4.13;87.92
20862;DHT22;10591;52.532;13.348;2022-12-18T12:58:05;-4.26;88.04
20862;DHT22;10591;52.532;13.348;2022-12-18T13:01:05;-4.20;88.16
20862;DHT22;10591;52.532;13.348;2022-12-18T13:05:54;-4.18;88.13
20862;DHT22;10591;52.532;13.348;2022-12-18T13:08:34;-4.08;87.91
20862;DHT22;10591;52.532;13.348;2022-12-18T13:11:01;-4.04;87.55
20862;DHT22;10591;52.532;13.348;2022-12-18T13:13:55;-3.98;87.48
20862;DHT22;10591;52.532;13.348;2022-12-18T13:16:27;-4.06;87.34
20862;DHT22;10591;52.532;13.348;2022-12-18T13:18:58;-3.96;87.40
20862;DHT22;10591;52.532;13.348;2022-12-18T13:21:32;-3.70;87.08
20862;DHT22;10591;52.532;13.348;2022-12-18T13:24:25;-3.74;86.67
20862;DHT22;10591;52.532;13.348;2022-12-18T13:26:55;-3.94;86.78
20862;DHT22;10591;52.532;13.348;2022-12-18T13:29:44;-3.78;86.85
20862;DHT22;10591;52.532;13.348;2022-12-18T13:32:22;-3.65;86.40
20862;DHT22;10591;52.532;13.348;2022-12-18T13:37:54;-3.68;86.14
20862;DHT22;10591;52.532;13.348;2022-12-18T13:43:23;-3.78;86.44
20862;DHT22;10591;52.532;13.348;2022-12-18T13:46:28;-3.82;86.79
20862;DHT22;10591;52.532;13.348;2022-12-18T13:49:03;-3.86;86.74
20862;DHT22;10591;52.532;13.348;2022-12-18T13:51:35;-3.80;86.70
20862;DHT22;10591;52.532;13.348;2022-12-18T13:54:18;-3.80;86.82
20862;DHT22;10591;52.532;13.348;2022-12-18T13:56:47;-3.92;86.83
20862;DHT22;10591;52.532;13.348;2022-12-18T13:59:37;-3.86;87.22
20862;DHT22;10591;52.532;13.348;2022-12-18T14:02:20;-4.02;87.44
20862;DHT22;10591;52.532;13.348;2022-12-18T14:04:51;-4.17;87.56
20862;DHT22;10591;52.532;13.348;2022-12-18T14:10:01;-4.16;87.84
20862;DHT22;10591;52.532;13.348;2022-12-18T14:12:37;-4.08;87.79
20862;DHT22;10591;52.532;13.348;2022-12-18T14:15:34;-4.28;87.88
20862;DHT22;10591;52.532;13.348;2022-12-18T14:18:29;-4.26;87.99
20862;DHT22;10591;52.532;13.348;2022-12-18T14:21:01;-4.26;87.98
20862;DHT22;10591;52.532;13.348;2022-12-18T14:23:38;-4.24;88.08
20862;DHT22;10591;52.532;13.348;2022-12-18T14:26:31;-4.30;88.02
20862;DHT22;10591;52.532;13.348;2022-12-18T14:29:26;-4.31;87.98
20862;DHT22;10591;52.532;13.348;2022-12-18T14:34:52;-4.32;88.02
20862;DHT22;10591;52.532;13.348;2022-12-18T14:37:28;-4.16;87.93
20862;DHT22;10591;52.532;13.348;2022-12-18T14:40:01;-4.18;87.84
20862;DHT22;10591;52.532;13.348;2022-12-18T14:42:38;-4.16;87.83
20862;DHT22;10591;52.532;13.348;2022-12-18T14:45:34;-4.04;87.88
20862;DHT22;10591;52.532;13.348;2022-12-18T14:50:56;-3.96;87.72
20862;DHT22;10591;52.532;13.348;2022-12-18T14:53:27;-4.08;87.75
20862;DHT22;10591;52.532;13.348;2022-12-18T14:55:56;-3.90;87.63
20862;DHT22;10591;52.532;13.348;2022-12-18T14:58:27;-3.96;87.42
20862;DHT22;10591;52.532;13.348;2022-12-18T15:01:02;-3.90;87.46
20862;DHT22;10591;52.532;13.348;2022-12-18T15:03:34;-3.86;87.31
20862;DHT22;10591;52.532;13.348;2022-12-18T15:06:17;-3.80;87.38
20862;DHT22;10591;52.532;13.348;2022-12-18T15:08:48;-3.86;87.28
20862;DHT22;10591;52.532;13.348;2022-12-18T15:14:34;-4.06;86.88
20862;DHT22;10591;52.532;13.348;2022-12-18T15:17:16;-4.30;87.25
20862;DHT22;10591;52.532;13.348;2022-12-18T15:19:51;-4.34;87.35
20862;DHT22;10591;52.532;13.348;2022-12-18T15:22:36;-4.32;87.27
20862;DHT22;10591;52.532;13.348;2022-12-18T15:25:22;-4.38;87.36
20862;DHT22;10591;52.532;13.348;2022-12-18T15:27:44;-4.32;87.27
20862;DHT22;10591;52.532;13.348;2022-12-18T15:30:21;-4.32;87.33
20862;DHT22;10591;52.532;13.348;2022-12-18T15:35:48;-4.48;87.64
20862;DHT22;10591;52.532;13.348;2022-12-18T15:38:20;-4.42;87.82
20862;DHT22;10591;52.532;13.348;2022-12-18T15:40:53;-4.34;87.68
20862;DHT22;10591;52.532;13.348;2022-12-18T15:43:34;-4.30;87.63
20862;DHT22;10591;52.532;13.348;2022-12-18T15:46:11;-4.26;87.49
20862;DHT22;10591;52.532;13.348;2022-12-18T15:48:48;-4.31;87.54
20862;DHT22;10591;52.532;13.348;2022-12-18T15:51:18;-4.34;87.49
20862;DHT22;10591;52.532;13.348;2022-12-18T15:53:53;-4.38;87.59
20862;DHT22;10591;52.532;13.348;2022-12-18T15:56:28;-4.51;87.47
20862;DHT22;10591;52.532;13.348;2022-12-18T15:59:20;-4.41;87.33
20862;DHT22;10591;52.532;13.348;2022-12-18T16:01:53;-4.50;87.20
20862;DHT22;10591;52.532;13.348;2022-12-18T16:04:28;-4.44;87.03
20862;DHT22;10591;52.532;13.348;2022-12-18T16:07:01;-4.30;86.85
20862;DHT22;10591;52.532;13.348;2022-12-18T16:09:39;-4.33;86.60
20862;DHT22;10591;52.532;13.348;2022-12-18T16:12:18;-4.22;86.48
20862;DHT22;10591;52.532;13.348;2022-12-18T16:14:53;-4.28;86.32
20862;DHT22;10591;52.532;13.348;2022-12-18T16:17:27;-4.10;86.28
20862;DHT22;10591;52.532;13.348;2022-12-18T16:19:59;-4.16;86.41
20862;DHT22;10591;52.532;13.348;2022-12-18T16:22:32;-4.08;86.42
20862;DHT22;10591;52.532;13.348;2022-12-18T16:25:06;-4.27;86.70
20862;DHT22;10591;52.532;13.348;2022-12-18T16:27:42;-4.10;86.83
20862;DHT22;10591;52.532;13.348;2022-12-18T16:30:19;-4.24;86.69
20862;DHT22;10591;52.532;13.348;2022-12-18T16:32:52;-4.30;86.80
20862;DHT22;10591;52.532;13.348;2022-12-18T16:35:25;-4.28;86.44
20862;DHT22;10591;52.532;13.348;2022-12-18T16:37:58;-4.25;86.37
20862;DHT22;10591;52.532;13.348;2022-12-18T16:40:33;-4.30;86.40
20862;DHT22;10591;52.532;13.348;2022-12-18T16:43:05;-4.39;86.42
20862;DHT22;10591;52.532;13.348;2022-12-18T16:45:36;-4.36;86.68
20862;DHT22;10591;52.532;13.348;2022-12-18T16:48:07;-4.38;86.74
20862;DHT22;10591;52.532;13.348;2022-12-18T16:50:39;-4.32;86.61
20862;DHT22;10591;52.532;13.348;2022-12-18T16:53:10;-4.35;86.51
20862;DHT22;10591;52.532;13.348;2022-12-18T16:55:43;-4.22;86.57
20862;DHT22;10591;52.532;13.348;2022-12-18T16:58:15;-4.20;86.51
20862;DHT22;10591;52.532;13.348;2022-12-18T17:00:48;-4.23;86.54
20862;DHT22;10591;52.532;13.348;2022-12-18T17:03:21;-4.28;86.61
20862;DHT22;10591;52.532;13.348;2022-12-18T17:05:54;-4.34;86.83
20862;DHT22;10591;52.532;13.348;2022-12-18T17:08:26;-4.34;86.84
20862;DHT22;10591;52.532;13.348;2022-12-18T17:11:04;-4.30;87.00
20862;DHT22;10591;52.532;13.348;2022-12-18T17:13:36;-4.34;86.93
20862;DHT22;10591;52.532;13.348;2022-12-18T17:16:09;-4.36;86.81
20862;DHT22;10591;52.532;13.348;2022-12-18T17:18:43;-4.46;86.86
20862;DHT22;10591;52.532;13.348;2022-12-18T17:21:14;-4.44;87.03
20862;DHT22;10591;52.532;13.348;2022-12-18T17:23:49;-4.39;87.15
20862;DHT22;10591;52.532;13.348;2022-12-18T17:26:20;-4.46;87.03